Lawrenceburg, TN (38464)

9:10 AM CST on December 04, 2016 (GMT -0600)
Daniel Drive | | Change Station

Elev 908 ft 35.24 °N, 87.31 °W | Updated 1 minute ago

Light Rain
Light Rain Mist
44.6 °F
Feels Like 45 °F
N
1.9
Wind Variable Wind from WSW
Gusts 2.5 mph

Today
High -- | Low -- °F
--% Chance of Precip.
Yesterday
High -- | Low -- °F
Precip. -- in
Pressure 30.04 in
Visibility 2.0 miles
Clouds Overcast 600 ft
Windchill 45 °F
Dew Point 45 °F
Humidity 100%
Rainfall 0.00 in
Snow Depth Not available.
6:42 AM 4:36 PM
Waxing Crescent, 23% visible
METAR KMSL 041453Z AUTO 11008KT 2SM -RA BR OVC006 08/06 A3004 RMK AO2 RAB00 CIG 004V008 SLP172 P0006 60011 T00780061 58010
Pressure 30.04 in
Visibility 2.0 miles
Clouds Overcast 600 ft
Windchill 45 °F
Dew Point 45 °F
Humidity 100%
Rainfall 0.00 in
Snow Depth Not available.
6:42 AM 4:36 PM
Waxing Crescent, 23% visible
METAR KMSL 041453Z AUTO 11008KT 2SM -RA BR OVC006 08/06 A3004 RMK AO2 RAB00 CIG 004V008 SLP172 P0006 60011 T00780061 58010

10-Day Weather Forecast

Almanac

Astronomy

Dec. 04, 2016 Rise Set
Actual Time
Civil Twilight
Nautical Twilight
Astronomical Twilight
Moon
Length of Visible Light
Length of Day
Tomorrow will be .
, % of the Moon is Illuminated

Today's Extremes

State Highs State Lows

Community

WunderPhotos

Upload Photos

1,955,604 photos uploaded!

WunderBlog® & News

Nearby

Air Quality

  Air Quality AQ Index Pollutant
Not available.

Snow Depth

Station Depth Elevation

Earthquake Activity

City Distance Mag. Time & Date
Minimum magnitude displayed is 2.5.

Coastal Water Temperatures

Place Temperature

Stations

Nearby Weather Stations

Station Location Temp. Windchill Dew Point Humidity Wind Precip. Elev Updated Type
                   

Watches & Warnings

There are currently no watches in effect.